sensor_id;sensor_type;location;lat;lon;timestamp;P1;durP1;ratioP1;P2;durP2;ratioP2
38399;SDS011;24180;42.676;23.320;2023-05-07T00:00:36;15.77;;;13.03;;
38399;SDS011;24180;42.676;23.320;2023-05-07T00:03:01;18.07;;;13.30;;
38399;SDS011;24180;42.676;23.320;2023-05-07T00:05:26;16.50;;;12.87;;
38399;SDS011;24180;42.676;23.320;2023-05-07T00:07:52;16.83;;;12.53;;
38399;SDS011;24180;42.676;23.320;2023-05-07T00:10:17;14.00;;;12.00;;
38399;SDS011;24180;42.676;23.320;2023-05-07T00:12:44;18.20;;;12.20;;
38399;SDS011;24180;42.676;23.320;2023-05-07T00:15:09;23.40;;;13.00;;
38399;SDS011;24180;42.676;23.320;2023-05-07T00:17:35;13.83;;;12.33;;
38399;SDS011;24180;42.676;23.320;2023-05-07T00:20:01;13.80;;;12.40;;
38399;SDS011;24180;42.676;23.320;2023-05-07T00:22:27;13.93;;;12.27;;
38399;SDS011;24180;42.676;23.320;2023-05-07T00:24:55;14.97;;;12.00;;
38399;SDS011;24180;42.676;23.320;2023-05-07T00:27:20;13.53;;;12.10;;
38399;SDS011;24180;42.676;23.320;2023-05-07T00:29:46;14.83;;;12.50;;
38399;SDS011;24180;42.676;23.320;2023-05-07T00:32:11;13.90;;;11.87;;
38399;SDS011;24180;42.676;23.320;2023-05-07T00:34:36;15.27;;;13.27;;
38399;SDS011;24180;42.676;23.320;2023-05-07T00:37:02;14.13;;;12.73;;
38399;SDS011;24180;42.676;23.320;2023-05-07T00:39:27;15.43;;;12.57;;
38399;SDS011;24180;42.676;23.320;2023-05-07T00:41:52;14.33;;;12.83;;
38399;SDS011;24180;42.676;23.320;2023-05-07T00:44:18;15.20;;;12.70;;
38399;SDS011;24180;42.676;23.320;2023-05-07T00:46:43;17.03;;;12.80;;
38399;SDS011;24180;42.676;23.320;2023-05-07T00:49:10;14.40;;;12.57;;
38399;SDS011;24180;42.676;23.320;2023-05-07T00:51:35;14.70;;;13.20;;
38399;SDS011;24180;42.676;23.320;2023-05-07T00:54:02;16.33;;;12.67;;
38399;SDS011;24180;42.676;23.320;2023-05-07T00:56:28;15.67;;;13.93;;
38399;SDS011;24180;42.676;23.320;2023-05-07T00:58:53;15.77;;;13.80;;
38399;SDS011;24180;42.676;23.320;2023-05-07T01:01:19;15.27;;;13.67;;
38399;SDS011;24180;42.676;23.320;2023-05-07T01:03:45;19.83;;;13.67;;
38399;SDS011;24180;42.676;23.320;2023-05-07T01:06:10;16.53;;;14.23;;
38399;SDS011;24180;42.676;23.320;2023-05-07T01:08:38;15.13;;;12.70;;
38399;SDS011;24180;42.676;23.320;2023-05-07T01:11:06;17.17;;;12.93;;
38399;SDS011;24180;42.676;23.320;2023-05-07T01:13:32;16.60;;;13.60;;
38399;SDS011;24180;42.676;23.320;2023-05-07T01:15:59;19.20;;;13.73;;
38399;SDS011;24180;42.676;23.320;2023-05-07T01:18:25;14.33;;;12.83;;
38399;SDS011;24180;42.676;23.320;2023-05-07T01:20:51;15.63;;;13.60;;
38399;SDS011;24180;42.676;23.320;2023-05-07T01:23:17;16.17;;;13.83;;
38399;SDS011;24180;42.676;23.320;2023-05-07T01:25:50;15.53;;;13.20;;
38399;SDS011;24180;42.676;23.320;2023-05-07T01:28:16;17.83;;;13.83;;
38399;SDS011;24180;42.676;23.320;2023-05-07T01:30:42;14.17;;;12.67;;
38399;SDS011;24180;42.676;23.320;2023-05-07T01:33:24;13.40;;;12.00;;
38399;SDS011;24180;42.676;23.320;2023-05-07T01:35:52;15.97;;;10.87;;
38399;SDS011;24180;42.676;23.320;2023-05-07T01:38:18;16.30;;;10.90;;
38399;SDS011;24180;42.676;23.320;2023-05-07T01:40:47;12.83;;;9.30;;
38399;SDS011;24180;42.676;23.320;2023-05-07T01:43:12;9.70;;;8.70;;
38399;SDS011;24180;42.676;23.320;2023-05-07T01:45:38;9.97;;;8.97;;
38399;SDS011;24180;42.676;23.320;2023-05-07T01:48:05;9.70;;;8.70;;
38399;SDS011;24180;42.676;23.320;2023-05-07T01:50:31;9.73;;;8.83;;
38399;SDS011;24180;42.676;23.320;2023-05-07T01:52:58;11.80;;;9.60;;
38399;SDS011;24180;42.676;23.320;2023-05-07T01:55:24;9.23;;;7.97;;
38399;SDS011;24180;42.676;23.320;2023-05-07T01:57:49;9.33;;;8.43;;
38399;SDS011;24180;42.676;23.320;2023-05-07T02:00:15;11.70;;;9.27;;
38399;SDS011;24180;42.676;23.320;2023-05-07T02:02:40;10.97;;;9.83;;
38399;SDS011;24180;42.676;23.320;2023-05-07T02:05:06;11.00;;;9.70;;
38399;SDS011;24180;42.676;23.320;2023-05-07T02:07:32;10.90;;;9.60;;
38399;SDS011;24180;42.676;23.320;2023-05-07T02:09:57;10.30;;;9.30;;
38399;SDS011;24180;42.676;23.320;2023-05-07T02:12:23;11.00;;;9.80;;
38399;SDS011;24180;42.676;23.320;2023-05-07T02:14:48;14.10;;;10.33;;
38399;SDS011;24180;42.676;23.320;2023-05-07T02:17:14;11.37;;;10.23;;
38399;SDS011;24180;42.676;23.320;2023-05-07T02:19:40;13.77;;;9.27;;
38399;SDS011;24180;42.676;23.320;2023-05-07T02:22:05;9.83;;;8.93;;
38399;SDS011;24180;42.676;23.320;2023-05-07T02:24:31;11.07;;;9.80;;
38399;SDS011;24180;42.676;23.320;2023-05-07T02:26:56;11.77;;;10.07;;
38399;SDS011;24180;42.676;23.320;2023-05-07T02:29:22;11.63;;;9.63;;
38399;SDS011;24180;42.676;23.320;2023-05-07T02:31:47;12.03;;;9.87;;
38399;SDS011;24180;42.676;23.320;2023-05-07T02:34:17;12.53;;;9.87;;
38399;SDS011;24180;42.676;23.320;2023-05-07T02:36:43;11.03;;;9.93;;
38399;SDS011;24180;42.676;23.320;2023-05-07T02:39:09;10.43;;;9.47;;
38399;SDS011;24180;42.676;23.320;2023-05-07T02:41:34;10.77;;;9.67;;
38399;SDS011;24180;42.676;23.320;2023-05-07T02:43:59;11.13;;;9.50;;
38399;SDS011;24180;42.676;23.320;2023-05-07T02:46:25;10.17;;;9.17;;
38399;SDS011;24180;42.676;23.320;2023-05-07T02:48:50;10.83;;;9.83;;
38399;SDS011;24180;42.676;23.320;2023-05-07T02:51:20;12.77;;;9.80;;
38399;SDS011;24180;42.676;23.320;2023-05-07T02:53:46;10.70;;;9.40;;
38399;SDS011;24180;42.676;23.320;2023-05-07T02:56:11;10.53;;;9.53;;
38399;SDS011;24180;42.676;23.320;2023-05-07T02:58:37;12.17;;;10.33;;
38399;SDS011;24180;42.676;23.320;2023-05-07T03:01:04;10.87;;;9.87;;
38399;SDS011;24180;42.676;23.320;2023-05-07T03:03:30;12.13;;;10.47;;
38399;SDS011;24180;42.676;23.320;2023-05-07T03:05:55;12.50;;;10.67;;
38399;SDS011;24180;42.676;23.320;2023-05-07T03:08:21;12.27;;;10.17;;
38399;SDS011;24180;42.676;23.320;2023-05-07T03:10:46;14.80;;;10.33;;
38399;SDS011;24180;42.676;23.320;2023-05-07T03:13:12;11.23;;;10.03;;
38399;SDS011;24180;42.676;23.320;2023-05-07T03:15:37;11.70;;;10.47;;
38399;SDS011;24180;42.676;23.320;2023-05-07T03:18:03;13.63;;;11.17;;
38399;SDS011;24180;42.676;23.320;2023-05-07T03:20:28;11.87;;;10.20;;
38399;SDS011;24180;42.676;23.320;2023-05-07T03:22:55;14.43;;;10.50;;
38399;SDS011;24180;42.676;23.320;2023-05-07T03:25:20;13.30;;;10.50;;
38399;SDS011;24180;42.676;23.320;2023-05-07T03:27:45;14.87;;;10.43;;
38399;SDS011;24180;42.676;23.320;2023-05-07T03:30:11;12.90;;;10.87;;
38399;SDS011;24180;42.676;23.320;2023-05-07T03:32:37;12.63;;;10.83;;
38399;SDS011;24180;42.676;23.320;2023-05-07T03:35:03;12.07;;;10.63;;
38399;SDS011;24180;42.676;23.320;2023-05-07T03:37:29;14.37;;;11.40;;
38399;SDS011;24180;42.676;23.320;2023-05-07T03:39:54;13.47;;;11.57;;
38399;SDS011;24180;42.676;23.320;2023-05-07T03:42:19;14.00;;;11.20;;
38399;SDS011;24180;42.676;23.320;2023-05-07T03:44:45;13.17;;;11.73;;
38399;SDS011;24180;42.676;23.320;2023-05-07T03:47:10;14.43;;;11.43;;
38399;SDS011;24180;42.676;23.320;2023-05-07T03:49:36;14.93;;;11.53;;
38399;SDS011;24180;42.676;23.320;2023-05-07T03:52:01;12.87;;;11.40;;
38399;SDS011;24180;42.676;23.320;2023-05-07T03:54:27;13.27;;;11.83;;
38399;SDS011;24180;42.676;23.320;2023-05-07T03:56:52;14.17;;;11.40;;
38399;SDS011;24180;42.676;23.320;2023-05-07T03:59:18;12.70;;;11.30;;
38399;SDS011;24180;42.676;23.320;2023-05-07T04:01:43;13.03;;;11.53;;
38399;SDS011;24180;42.676;23.320;2023-05-07T04:04:08;12.67;;;11.40;;
38399;SDS011;24180;42.676;23.320;2023-05-07T04:06:34;12.97;;;11.67;;
38399;SDS011;24180;42.676;23.320;2023-05-07T04:08:59;14.37;;;12.87;;
38399;SDS011;24180;42.676;23.320;2023-05-07T04:11:25;15.63;;;11.63;;
38399;SDS011;24180;42.676;23.320;2023-05-07T04:13:50;13.30;;;11.77;;
38399;SDS011;24180;42.676;23.320;2023-05-07T04:16:16;13.47;;;11.53;;
38399;SDS011;24180;42.676;23.320;2023-05-07T04:18:41;13.50;;;12.00;;
38399;SDS011;24180;42.676;23.320;2023-05-07T04:21:13;15.60;;;11.47;;
38399;SDS011;24180;42.676;23.320;2023-05-07T04:23:42;13.37;;;11.77;;
38399;SDS011;24180;42.676;23.320;2023-05-07T04:26:08;13.97;;;11.90;;
38399;SDS011;24180;42.676;23.320;2023-05-07T04:28:34;17.17;;;13.10;;
38399;SDS011;24180;42.676;23.320;2023-05-07T04:30:59;14.27;;;12.77;;
38399;SDS011;24180;42.676;23.320;2023-05-07T04:33:25;15.53;;;12.60;;
38399;SDS011;24180;42.676;23.320;2023-05-07T04:35:50;13.37;;;12.07;;
38399;SDS011;24180;42.676;23.320;2023-05-07T04:38:16;14.47;;;11.90;;
38399;SDS011;24180;42.676;23.320;2023-05-07T04:40:43;14.53;;;13.00;;
38399;SDS011;24180;42.676;23.320;2023-05-07T04:43:09;16.97;;;13.93;;
38399;SDS011;24180;42.676;23.320;2023-05-07T04:45:35;19.50;;;14.60;;
38399;SDS011;24180;42.676;23.320;2023-05-07T04:48:01;15.13;;;13.53;;
38399;SDS011;24180;42.676;23.320;2023-05-07T04:50:26;14.77;;;12.80;;
38399;SDS011;24180;42.676;23.320;2023-05-07T04:52:51;16.40;;;13.83;;
38399;SDS011;24180;42.676;23.320;2023-05-07T04:55:17;14.47;;;12.97;;
38399;SDS011;24180;42.676;23.320;2023-05-07T04:57:43;17.37;;;13.57;;
38399;SDS011;24180;42.676;23.320;2023-05-07T05:00:08;19.30;;;13.93;;
38399;SDS011;24180;42.676;23.320;2023-05-07T05:02:34;13.67;;;12.27;;
38399;SDS011;24180;42.676;23.320;2023-05-07T05:05:00;15.73;;;12.77;;
38399;SDS011;24180;42.676;23.320;2023-05-07T05:07:27;14.40;;;12.90;;
38399;SDS011;24180;42.676;23.320;2023-05-07T05:09:53;16.23;;;13.07;;
38399;SDS011;24180;42.676;23.320;2023-05-07T05:12:19;14.07;;;12.67;;
38399;SDS011;24180;42.676;23.320;2023-05-07T05:14:44;14.33;;;12.83;;
38399;SDS011;24180;42.676;23.320;2023-05-07T05:17:10;14.60;;;13.10;;
38399;SDS011;24180;42.676;23.320;2023-05-07T05:19:35;14.50;;;13.07;;
38399;SDS011;24180;42.676;23.320;2023-05-07T05:22:01;14.50;;;12.57;;
38399;SDS011;24180;42.676;23.320;2023-05-07T05:24:28;14.80;;;13.03;;
38399;SDS011;24180;42.676;23.320;2023-05-07T05:26:54;14.67;;;12.53;;
38399;SDS011;24180;42.676;23.320;2023-05-07T05:29:19;14.70;;;13.00;;
38399;SDS011;24180;42.676;23.320;2023-05-07T05:31:44;13.93;;;12.23;;
38399;SDS011;24180;42.676;23.320;2023-05-07T05:34:10;14.27;;;12.87;;
38399;SDS011;24180;42.676;23.320;2023-05-07T05:36:35;15.47;;;13.50;;
38399;SDS011;24180;42.676;23.320;2023-05-07T05:39:01;14.07;;;12.73;;
38399;SDS011;24180;42.676;23.320;2023-05-07T05:41:26;15.10;;;12.37;;
38399;SDS011;24180;42.676;23.320;2023-05-07T05:43:52;15.87;;;12.67;;
38399;SDS011;24180;42.676;23.320;2023-05-07T05:46:17;15.60;;;13.13;;
38399;SDS011;24180;42.676;23.320;2023-05-07T05:48:42;13.40;;;12.20;;
38399;SDS011;24180;42.676;23.320;2023-05-07T05:51:08;14.93;;;13.23;;
38399;SDS011;24180;42.676;23.320;2023-05-07T05:53:33;18.43;;;13.83;;
38399;SDS011;24180;42.676;23.320;2023-05-07T05:55:59;15.07;;;12.20;;
38399;SDS011;24180;42.676;23.320;2023-05-07T05:58:24;14.33;;;12.93;;
38399;SDS011;24180;42.676;23.320;2023-05-07T06:00:50;13.33;;;11.93;;
38399;SDS011;24180;42.676;23.320;2023-05-07T06:03:17;15.47;;;12.57;;
38399;SDS011;24180;42.676;23.320;2023-05-07T06:05:42;14.47;;;12.97;;
38399;SDS011;24180;42.676;23.320;2023-05-07T06:08:08;15.30;;;13.70;;
38399;SDS011;24180;42.676;23.320;2023-05-07T06:10:34;15.90;;;14.20;;
38399;SDS011;24180;42.676;23.320;2023-05-07T06:13:01;15.17;;;13.23;;
38399;SDS011;24180;42.676;23.320;2023-05-07T06:15:26;14.53;;;12.87;;
38399;SDS011;24180;42.676;23.320;2023-05-07T06:17:52;14.30;;;12.80;;
38399;SDS011;24180;42.676;23.320;2023-05-07T06:20:17;16.17;;;13.37;;
38399;SDS011;24180;42.676;23.320;2023-05-07T06:22:43;14.83;;;13.33;;
38399;SDS011;24180;42.676;23.320;2023-05-07T06:25:08;15.53;;;12.40;;
38399;SDS011;24180;42.676;23.320;2023-05-07T06:27:34;14.23;;;12.70;;
38399;SDS011;24180;42.676;23.320;2023-05-07T06:29:59;14.30;;;12.80;;
38399;SDS011;24180;42.676;23.320;2023-05-07T06:32:25;14.90;;;13.40;;
38399;SDS011;24180;42.676;23.320;2023-05-07T06:34:50;15.73;;;14.03;;
38399;SDS011;24180;42.676;23.320;2023-05-07T06:37:16;15.77;;;12.93;;
38399;SDS011;24180;42.676;23.320;2023-05-07T06:39:41;13.87;;;12.33;;
38399;SDS011;24180;42.676;23.320;2023-05-07T06:42:06;14.80;;;13.40;;
38399;SDS011;24180;42.676;23.320;2023-05-07T06:44:32;14.03;;;12.57;;
38399;SDS011;24180;42.676;23.320;2023-05-07T06:46:57;13.63;;;12.30;;
38399;SDS011;24180;42.676;23.320;2023-05-07T06:49:23;13.57;;;12.27;;
38399;SDS011;24180;42.676;23.320;2023-05-07T06:51:48;14.70;;;12.90;;
38399;SDS011;24180;42.676;23.320;2023-05-07T06:54:14;14.33;;;12.90;;
38399;SDS011;24180;42.676;23.320;2023-05-07T06:56:42;13.47;;;12.03;;
38399;SDS011;24180;42.676;23.320;2023-05-07T06:59:07;12.80;;;11.47;;
38399;SDS011;24180;42.676;23.320;2023-05-07T07:01:33;13.33;;;11.00;;
38399;SDS011;24180;42.676;23.320;2023-05-07T07:03:58;12.03;;;10.83;;
38399;SDS011;24180;42.676;23.320;2023-05-07T07:06:24;13.67;;;11.67;;
38399;SDS011;24180;42.676;23.320;2023-05-07T07:08:50;10.60;;;9.60;;
38399;SDS011;24180;42.676;23.320;2023-05-07T07:11:16;12.07;;;10.70;;
38399;SDS011;24180;42.676;23.320;2023-05-07T07:13:41;11.40;;;10.30;;
38399;SDS011;24180;42.676;23.320;2023-05-07T07:16:07;10.63;;;9.73;;
38399;SDS011;24180;42.676;23.320;2023-05-07T07:18:33;12.20;;;11.10;;
38399;SDS011;24180;42.676;23.320;2023-05-07T07:20:58;11.77;;;10.47;;
38399;SDS011;24180;42.676;23.320;2023-05-07T07:23:24;15.73;;;10.33;;
38399;SDS011;24180;42.676;23.320;2023-05-07T07:25:50;10.87;;;9.87;;
38399;SDS011;24180;42.676;23.320;2023-05-07T07:30:59;11.40;;;10.33;;
38399;SDS011;24180;42.676;23.320;2023-05-07T07:33:24;11.47;;;10.47;;
38399;SDS011;24180;42.676;23.320;2023-05-07T07:35:50;11.30;;;10.10;;
38399;SDS011;24180;42.676;23.320;2023-05-07T07:38:15;11.93;;;10.73;;
38399;SDS011;24180;42.676;23.320;2023-05-07T07:40:41;11.17;;;10.03;;
38399;SDS011;24180;42.676;23.320;2023-05-07T07:43:06;10.97;;;9.97;;
38399;SDS011;24180;42.676;23.320;2023-05-07T07:45:32;12.13;;;11.13;;
38399;SDS011;24180;42.676;23.320;2023-05-07T07:47:57;12.70;;;11.40;;
38399;SDS011;24180;42.676;23.320;2023-05-07T07:50:22;12.50;;;11.20;;
38399;SDS011;24180;42.676;23.320;2023-05-07T07:52:48;13.93;;;12.50;;
38399;SDS011;24180;42.676;23.320;2023-05-07T07:55:14;13.40;;;12.13;;
38399;SDS011;24180;42.676;23.320;2023-05-07T07:57:43;15.40;;;12.43;;
38399;SDS011;24180;42.676;23.320;2023-05-07T08:00:08;12.17;;;11.03;;
38399;SDS011;24180;42.676;23.320;2023-05-07T08:02:34;13.50;;;11.50;;
38399;SDS011;24180;42.676;23.320;2023-05-07T08:04:59;12.27;;;11.00;;
38399;SDS011;24180;42.676;23.320;2023-05-07T08:07:25;15.43;;;11.70;;
38399;SDS011;24180;42.676;23.320;2023-05-07T08:09:50;13.53;;;12.23;;
38399;SDS011;24180;42.676;23.320;2023-05-07T08:12:16;13.00;;;11.50;;
38399;SDS011;24180;42.676;23.320;2023-05-07T08:14:41;12.20;;;11.10;;
38399;SDS011;24180;42.676;23.320;2023-05-07T08:17:07;13.43;;;12.03;;
38399;SDS011;24180;42.676;23.320;2023-05-07T08:19:34;14.77;;;13.23;;
38399;SDS011;24180;42.676;23.320;2023-05-07T08:22:00;12.80;;;11.50;;
38399;SDS011;24180;42.676;23.320;2023-05-07T08:24:25;14.93;;;12.47;;
38399;SDS011;24180;42.676;23.320;2023-05-07T08:26:51;13.27;;;11.97;;
38399;SDS011;24180;42.676;23.320;2023-05-07T08:29:16;13.33;;;11.97;;
38399;SDS011;24180;42.676;23.320;2023-05-07T08:31:41;12.63;;;11.27;;
38399;SDS011;24180;42.676;23.320;2023-05-07T08:34:07;12.20;;;10.87;;
38399;SDS011;24180;42.676;23.320;2023-05-07T08:36:32;11.50;;;10.40;;
38399;SDS011;24180;42.676;23.320;2023-05-07T08:38:58;11.63;;;10.47;;
38399;SDS011;24180;42.676;23.320;2023-05-07T08:41:24;11.07;;;10.17;;
38399;SDS011;24180;42.676;23.320;2023-05-07T08:43:50;15.37;;;10.03;;
38399;SDS011;24180;42.676;23.320;2023-05-07T08:46:16;11.87;;;8.87;;
38399;SDS011;24180;42.676;23.320;2023-05-07T08:48:43;10.17;;;9.27;;
38399;SDS011;24180;42.676;23.320;2023-05-07T08:51:12;11.40;;;10.43;;
38399;SDS011;24180;42.676;23.320;2023-05-07T08:53:42;11.63;;;10.50;;
38399;SDS011;24180;42.676;23.320;2023-05-07T08:56:11;10.23;;;9.17;;
38399;SDS011;24180;42.676;23.320;2023-05-07T08:58:37;9.53;;;8.73;;
38399;SDS011;24180;42.676;23.320;2023-05-07T09:01:03;9.23;;;8.13;;
38399;SDS011;24180;42.676;23.320;2023-05-07T09:03:33;8.50;;;7.70;;
38399;SDS011;24180;42.676;23.320;2023-05-07T09:05:59;8.77;;;7.93;;
38399;SDS011;24180;42.676;23.320;2023-05-07T09:08:25;8.07;;;7.00;;
38399;SDS011;24180;42.676;23.320;2023-05-07T09:10:52;9.33;;;8.43;;
38399;SDS011;24180;42.676;23.320;2023-05-07T09:13:18;8.50;;;7.47;;
38399;SDS011;24180;42.676;23.320;2023-05-07T09:15:44;8.13;;;7.40;;
38399;SDS011;24180;42.676;23.320;2023-05-07T09:18:10;7.47;;;6.87;;
38399;SDS011;24180;42.676;23.320;2023-05-07T09:20:39;7.80;;;7.10;;
38399;SDS011;24180;42.676;23.320;2023-05-07T09:23:06;8.47;;;7.67;;
38399;SDS011;24180;42.676;23.320;2023-05-07T09:25:33;7.00;;;6.33;;
38399;SDS011;24180;42.676;23.320;2023-05-07T09:28:00;7.10;;;6.40;;
38399;SDS011;24180;42.676;23.320;2023-05-07T09:30:29;7.30;;;6.40;;
38399;SDS011;24180;42.676;23.320;2023-05-07T09:32:56;10.67;;;7.10;;
38399;SDS011;24180;42.676;23.320;2023-05-07T09:35:22;8.20;;;7.47;;
38399;SDS011;24180;42.676;23.320;2023-05-07T09:37:52;7.90;;;7.30;;
38399;SDS011;24180;42.676;23.320;2023-05-07T09:40:21;9.90;;;7.50;;
38399;SDS011;24180;42.676;23.320;2023-05-07T09:42:47;8.47;;;7.10;;
38399;SDS011;24180;42.676;23.320;2023-05-07T09:45:14;10.50;;;8.00;;
38399;SDS011;24180;42.676;23.320;2023-05-07T09:47:40;7.23;;;6.63;;
38399;SDS011;24180;42.676;23.320;2023-05-07T09:50:09;7.95;;;7.18;;
38399;SDS011;24180;42.676;23.320;2023-05-07T09:52:35;9.50;;;6.40;;
38399;SDS011;24180;42.676;23.320;2023-05-07T09:55:02;8.10;;;6.93;;
38399;SDS011;24180;42.676;23.320;2023-05-07T09:57:28;6.70;;;6.10;;
38399;SDS011;24180;42.676;23.320;2023-05-07T09:59:56;6.82;;;6.07;;
38399;SDS011;24180;42.676;23.320;2023-05-07T10:02:23;6.05;;;5.65;;
38399;SDS011;24180;42.676;23.320;2023-05-07T10:04:50;6.93;;;6.32;;
38399;SDS011;24180;42.676;23.320;2023-05-07T10:07:17;9.38;;;5.70;;
38399;SDS011;24180;42.676;23.320;2023-05-07T10:09:42;7.47;;;6.00;;
38399;SDS011;24180;42.676;23.320;2023-05-07T10:12:09;6.25;;;5.65;;
38399;SDS011;24180;42.676;23.320;2023-05-07T10:14:35;7.03;;;6.45;;
38399;SDS011;24180;42.676;23.320;2023-05-07T10:17:02;6.22;;;5.63;;
38399;SDS011;24180;42.676;23.320;2023-05-07T10:19:27;6.18;;;5.60;;
38399;SDS011;24180;42.676;23.320;2023-05-07T10:21:55;5.90;;;5.25;;
38399;SDS011;24180;42.676;23.320;2023-05-07T10:24:29;6.88;;;6.25;;
38399;SDS011;24180;42.676;23.320;2023-05-07T10:26:59;6.63;;;6.03;;
38399;SDS011;24180;42.676;23.320;2023-05-07T10:34:45;6.35;;;5.75;;
38399;SDS011;24180;42.676;23.320;2023-05-07T10:37:13;6.43;;;5.80;;
38399;SDS011;24180;42.676;23.320;2023-05-07T10:39:40;6.78;;;6.30;;
38399;SDS011;24180;42.676;23.320;2023-05-07T10:42:09;6.93;;;6.30;;
38399;SDS011;24180;42.676;23.320;2023-05-07T10:44:35;6.70;;;6.07;;
38399;SDS011;24180;42.676;23.320;2023-05-07T10:49:33;11.15;;;6.15;;
38399;SDS011;24180;42.676;23.320;2023-05-07T10:52:12;7.28;;;6.40;;
38399;SDS011;24180;42.676;23.320;2023-05-07T10:54:42;5.25;;;4.95;;
38399;SDS011;24180;42.676;23.320;2023-05-07T11:05:30;8.10;;;7.50;;
38399;SDS011;24180;42.676;23.320;2023-05-07T11:07:57;6.03;;;5.43;;
38399;SDS011;24180;42.676;23.320;2023-05-07T11:14:02;6.43;;;5.85;;
38399;SDS011;24180;42.676;23.320;2023-05-07T11:16:19;7.28;;;6.78;;
38399;SDS011;24180;42.676;23.320;2023-05-07T11:18:55;5.65;;;5.15;;
38399;SDS011;24180;42.676;23.320;2023-05-07T11:21:37;5.22;;;4.82;;
38399;SDS011;24180;42.676;23.320;2023-05-07T11:24:04;6.57;;;5.32;;
38399;SDS011;24180;42.676;23.320;2023-05-07T11:26:40;7.05;;;5.55;;
38399;SDS011;24180;42.676;23.320;2023-05-07T11:29:17;5.25;;;4.95;;
38399;SDS011;24180;42.676;23.320;2023-05-07T11:31:48;5.03;;;4.72;;
38399;SDS011;24180;42.676;23.320;2023-05-07T11:34:21;5.40;;;5.00;;
38399;SDS011;24180;42.676;23.320;2023-05-07T11:36:47;6.88;;;6.47;;
38399;SDS011;24180;42.676;23.320;2023-05-07T11:39:30;6.68;;;6.03;;
38399;SDS011;24180;42.676;23.320;2023-05-07T11:41:58;5.28;;;4.90;;
38399;SDS011;24180;42.676;23.320;2023-05-07T11:47:25;7.47;;;6.03;;
38399;SDS011;24180;42.676;23.320;2023-05-07T11:49:52;6.97;;;6.15;;
38399;SDS011;24180;42.676;23.320;2023-05-07T11:52:19;5.70;;;5.10;;
38399;SDS011;24180;42.676;23.320;2023-05-07T11:54:49;5.60;;;5.18;;
38399;SDS011;24180;42.676;23.320;2023-05-07T11:57:21;6.50;;;6.00;;
38399;SDS011;24180;42.676;23.320;2023-05-07T11:59:47;5.40;;;4.90;;
38399;SDS011;24180;42.676;23.320;2023-05-07T12:02:13;5.15;;;4.85;;
38399;SDS011;24180;42.676;23.320;2023-05-07T12:04:40;6.53;;;6.10;;
38399;SDS011;24180;42.676;23.320;2023-05-07T12:07:10;5.13;;;4.60;;
38399;SDS011;24180;42.676;23.320;2023-05-07T12:09:37;6.18;;;5.68;;
38399;SDS011;24180;42.676;23.320;2023-05-07T12:12:03;6.45;;;6.05;;
38399;SDS011;24180;42.676;23.320;2023-05-07T12:14:29;6.38;;;5.72;;
38399;SDS011;24180;42.676;23.320;2023-05-07T12:16:55;6.75;;;5.53;;
38399;SDS011;24180;42.676;23.320;2023-05-07T12:19:21;5.72;;;5.22;;
38399;SDS011;24180;42.676;23.320;2023-05-07T12:21:46;7.57;;;7.05;;
38399;SDS011;24180;42.676;23.320;2023-05-07T12:24:13;6.63;;;6.22;;
38399;SDS011;24180;42.676;23.320;2023-05-07T12:26:40;5.13;;;4.63;;
38399;SDS011;24180;42.676;23.320;2023-05-07T12:29:06;5.60;;;5.30;;
38399;SDS011;24180;42.676;23.320;2023-05-07T12:31:31;5.93;;;5.38;;
38399;SDS011;24180;42.676;23.320;2023-05-07T12:33:57;5.50;;;5.20;;
38399;SDS011;24180;42.676;23.320;2023-05-07T12:36:22;6.43;;;6.03;;
38399;SDS011;24180;42.676;23.320;2023-05-07T12:38:49;4.75;;;4.45;;
38399;SDS011;24180;42.676;23.320;2023-05-07T12:41:15;4.25;;;4.03;;
38399;SDS011;24180;42.676;23.320;2023-05-07T12:43:43;5.03;;;4.70;;
38399;SDS011;24180;42.676;23.320;2023-05-07T12:46:10;4.70;;;4.30;;
38399;SDS011;24180;42.676;23.320;2023-05-07T12:48:38;6.15;;;5.80;;
38399;SDS011;24180;42.676;23.320;2023-05-07T12:51:08;4.85;;;4.25;;
38399;SDS011;24180;42.676;23.320;2023-05-07T12:53:39;5.55;;;5.05;;
38399;SDS011;24180;42.676;23.320;2023-05-07T12:56:05;5.25;;;4.72;;
38399;SDS011;24180;42.676;23.320;2023-05-07T12:58:32;5.03;;;4.50;;
38399;SDS011;24180;42.676;23.320;2023-05-07T13:01:00;5.80;;;5.32;;
38399;SDS011;24180;42.676;23.320;2023-05-07T13:03:34;5.60;;;5.20;;
38399;SDS011;24180;42.676;23.320;2023-05-07T13:06:01;6.45;;;5.85;;
38399;SDS011;24180;42.676;23.320;2023-05-07T13:08:30;4.32;;;4.03;;
38399;SDS011;24180;42.676;23.320;2023-05-07T13:11:02;4.18;;;3.88;;
38399;SDS011;24180;42.676;23.320;2023-05-07T13:13:32;5.20;;;4.80;;
38399;SDS011;24180;42.676;23.320;2023-05-07T13:15:58;4.32;;;4.03;;
38399;SDS011;24180;42.676;23.320;2023-05-07T13:18:25;4.57;;;4.28;;
38399;SDS011;24180;42.676;23.320;2023-05-07T13:20:51;4.72;;;4.32;;
38399;SDS011;24180;42.676;23.320;2023-05-07T13:23:17;5.30;;;4.90;;
38399;SDS011;24180;42.676;23.320;2023-05-07T13:25:43;4.47;;;4.15;;
38399;SDS011;24180;42.676;23.320;2023-05-07T13:28:08;6.78;;;5.43;;
38399;SDS011;24180;42.676;23.320;2023-05-07T13:30:33;5.40;;;5.05;;
38399;SDS011;24180;42.676;23.320;2023-05-07T13:32:59;5.70;;;5.30;;
38399;SDS011;24180;42.676;23.320;2023-05-07T13:35:25;5.47;;;4.95;;
38399;SDS011;24180;42.676;23.320;2023-05-07T13:37:50;5.20;;;4.80;;
38399;SDS011;24180;42.676;23.320;2023-05-07T13:40:17;4.68;;;4.22;;
38399;SDS011;24180;42.676;23.320;2023-05-07T13:42:44;5.57;;;4.97;;
38399;SDS011;24180;42.676;23.320;2023-05-07T13:45:10;5.43;;;5.03;;
38399;SDS011;24180;42.676;23.320;2023-05-07T13:47:35;5.70;;;5.30;;
38399;SDS011;24180;42.676;23.320;2023-05-07T13:50:01;4.75;;;4.45;;
38399;SDS011;24180;42.676;23.320;2023-05-07T13:52:26;5.00;;;4.60;;
38399;SDS011;24180;42.676;23.320;2023-05-07T13:54:52;6.25;;;5.72;;
38399;SDS011;24180;42.676;23.320;2023-05-07T13:57:17;5.10;;;4.80;;
38399;SDS011;24180;42.676;23.320;2023-05-07T13:59:43;5.35;;;4.85;;
38399;SDS011;24180;42.676;23.320;2023-05-07T14:02:09;5.50;;;5.15;;
38399;SDS011;24180;42.676;23.320;2023-05-07T14:04:34;5.00;;;4.70;;
38399;SDS011;24180;42.676;23.320;2023-05-07T14:07:00;5.78;;;5.28;;
38399;SDS011;24180;42.676;23.320;2023-05-07T14:09:25;5.80;;;5.40;;
38399;SDS011;24180;42.676;23.320;2023-05-07T14:11:51;5.50;;;5.07;;
38399;SDS011;24180;42.676;23.320;2023-05-07T14:14:17;5.07;;;4.78;;
38399;SDS011;24180;42.676;23.320;2023-05-07T14:16:43;5.32;;;4.93;;
38399;SDS011;24180;42.676;23.320;2023-05-07T14:19:09;5.60;;;5.20;;
38399;SDS011;24180;42.676;23.320;2023-05-07T14:21:35;4.97;;;4.57;;
38399;SDS011;24180;42.676;23.320;2023-05-07T14:24:00;4.97;;;4.57;;
38399;SDS011;24180;42.676;23.320;2023-05-07T14:26:25;4.90;;;4.50;;
38399;SDS011;24180;42.676;23.320;2023-05-07T14:28:52;4.82;;;4.50;;
38399;SDS011;24180;42.676;23.320;2023-05-07T14:31:20;5.78;;;5.10;;
38399;SDS011;24180;42.676;23.320;2023-05-07T14:33:46;5.43;;;4.93;;
38399;SDS011;24180;42.676;23.320;2023-05-07T14:36:11;5.50;;;5.00;;
38399;SDS011;24180;42.676;23.320;2023-05-07T14:38:36;6.03;;;5.63;;
38399;SDS011;24180;42.676;23.320;2023-05-07T14:41:02;5.30;;;4.80;;